sensor_id;sensor_type;location;lat;lon;timestamp;pressure;altitude;pressure_sealevel;temperature;humidity
77517;BME280;68414;53.946;27.634;2023-09-19T00:00:24;98968.953125;;;19.030001;64.500977
77517;BME280;68414;53.946;27.634;2023-09-19T00:01:24;98967.773438;;;19.000000;64.509766
77517;BME280;68414;53.946;27.634;2023-09-19T00:02:24;98959.007812;;;18.980000;64.882812
77517;BME280;68414;53.946;27.634;2023-09-19T00:03:24;98970.593750;;;18.969999;64.272461
77517;BME280;68414;53.946;27.634;2023-09-19T00:04:24;98970.593750;;;18.930000;65.670898
77517;BME280;68414;53.946;27.634;2023-09-19T00:06:24;98965.390625;;;18.950001;64.490234
77517;BME280;68414;53.946;27.634;2023-09-19T00:07:24;98968.984375;;;18.959999;64.249023
77517;BME280;68414;53.946;27.634;2023-09-19T00:08:24;98971.812500;;;18.920000;64.287109
77517;BME280;68414;53.946;27.634;2023-09-19T00:09:24;98969.828125;;;18.930000;65.393555
77517;BME280;68414;53.946;27.634;2023-09-19T00:10:25;98963.468750;;;18.850000;64.342773
77517;BME280;68414;53.946;27.634;2023-09-19T00:11:24;98969.015625;;;18.879999;64.171875
77517;BME280;68414;53.946;27.634;2023-09-19T00:12:25;98965.015625;;;18.930000;63.834961
77517;BME280;68414;53.946;27.634;2023-09-19T00:13:24;98969.406250;;;18.940001;63.725586
77517;BME280;68414;53.946;27.634;2023-09-19T00:14:25;98965.421875;;;18.910000;64.000000
77517;BME280;68414;53.946;27.634;2023-09-19T00:15:25;98967.828125;;;18.889999;63.763672
77517;BME280;68414;53.946;27.634;2023-09-19T00:16:24;98972.234375;;;18.900000;63.919922
77517;BME280;68414;53.946;27.634;2023-09-19T00:17:24;98971.421875;;;18.860001;64.920898
77517;BME280;68414;53.946;27.634;2023-09-19T00:18:25;98967.476562;;;18.840000;63.567383
77517;BME280;68414;53.946;27.634;2023-09-19T00:19:24;98971.843750;;;18.850000;63.391602
77517;BME280;68414;53.946;27.634;2023-09-19T00:20:24;98967.476562;;;18.840000;63.467773
77517;BME280;68414;53.946;27.634;2023-09-19T00:21:24;98966.289062;;;18.809999;63.653320
77517;BME280;68414;53.946;27.634;2023-09-19T00:22:24;98962.687500;;;18.809999;63.806641
77517;BME280;68414;53.946;27.634;2023-09-19T00:23:24;98966.289062;;;18.809999;63.487305
77517;BME280;68414;53.946;27.634;2023-09-19T00:24:24;98965.093750;;;18.790001;64.390625
77517;BME280;68414;53.946;27.634;2023-09-19T00:25:24;98959.484375;;;18.860001;63.039062
77517;BME280;68414;53.946;27.634;2023-09-19T00:26:24;98964.265625;;;18.820000;63.896484
77517;BME280;68414;53.946;27.634;2023-09-19T00:27:24;98957.500000;;;18.830000;64.141602
77517;BME280;68414;53.946;27.634;2023-09-19T00:28:24;98955.890625;;;18.850000;64.266602
77517;BME280;68414;53.946;27.634;2023-09-19T00:29:25;98961.062500;;;18.870001;64.424805
77517;BME280;68414;53.946;27.634;2023-09-19T00:30:24;98959.070312;;;18.870001;64.634766
77517;BME280;68414;53.946;27.634;2023-09-19T00:31:24;98962.281250;;;18.820000;65.567383
77517;BME280;68414;53.946;27.634;2023-09-19T00:32:24;98961.117188;;;18.760000;64.408203
77517;BME280;68414;53.946;27.634;2023-09-19T00:33:24;98957.968750;;;18.709999;64.234375
77517;BME280;68414;53.946;27.634;2023-09-19T00:34:24;98952.765625;;;18.730000;63.475586
77517;BME280;68414;53.946;27.634;2023-09-19T00:35:24;98953.984375;;;18.680000;63.181641
77517;BME280;68414;53.946;27.634;2023-09-19T00:36:24;98939.585938;;;18.770000;62.618164
77517;BME280;68414;53.946;27.634;2023-09-19T00:37:24;98950.718750;;;18.799999;62.666016
77517;BME280;68414;53.946;27.634;2023-09-19T00:38:24;98952.296875;;;18.850000;63.812500
77517;BME280;68414;53.946;27.634;2023-09-19T00:39:24;98941.929688;;;18.820000;64.162109
77517;BME280;68414;53.946;27.634;2023-09-19T00:40:24;98944.335938;;;18.799999;63.971680
77517;BME280;68414;53.946;27.634;2023-09-19T00:41:24;98941.156250;;;18.780001;64.234375
77517;BME280;68414;53.946;27.634;2023-09-19T00:42:24;98939.609375;;;18.700001;64.210938
77517;BME280;68414;53.946;27.634;2023-09-19T00:43:25;98938.867188;;;18.620001;64.023438
77517;BME280;68414;53.946;27.634;2023-09-19T00:44:24;98940.437500;;;18.629999;63.770508
77517;BME280;68414;53.946;27.634;2023-09-19T00:45:24;98931.656250;;;18.680000;64.021484
77517;BME280;68414;53.946;27.634;2023-09-19T00:46:24;98936.406250;;;18.709999;64.423828
77517;BME280;68414;53.946;27.634;2023-09-19T00:47:24;98929.250000;;;18.700001;64.234375
77517;BME280;68414;53.946;27.634;2023-09-19T00:48:25;98929.664062;;;18.690001;62.407227
77517;BME280;68414;53.946;27.634;2023-09-19T00:49:24;98927.640625;;;18.690001;63.126953
77517;BME280;68414;53.946;27.634;2023-09-19T00:50:24;98928.062500;;;18.680000;62.560547
77517;BME280;68414;53.946;27.634;2023-09-19T00:51:25;98926.429688;;;18.740000;62.214844
77517;BME280;68414;53.946;27.634;2023-09-19T00:52:24;98915.265625;;;18.740000;63.066406
77517;BME280;68414;53.946;27.634;2023-09-19T00:53:24;98922.859375;;;18.700001;64.000977
77517;BME280;68414;53.946;27.634;2023-09-19T00:54:24;98920.078125;;;18.700001;62.584961
77517;BME280;68414;53.946;27.634;2023-09-19T00:55:25;98920.843750;;;18.740000;62.380859
77517;BME280;68414;53.946;27.634;2023-09-19T00:56:24;98921.296875;;;18.690001;62.805664
77517;BME280;68414;53.946;27.634;2023-09-19T00:57:24;98920.078125;;;18.700001;62.253906
77517;BME280;68414;53.946;27.634;2023-09-19T00:58:24;98924.500000;;;18.639999;62.400391
77517;BME280;68414;53.946;27.634;2023-09-19T00:59:24;98920.484375;;;18.680000;63.059570
77517;BME280;68414;53.946;27.634;2023-09-19T01:00:24;98917.671875;;;18.719999;62.975586
77517;BME280;68414;53.946;27.634;2023-09-19T01:01:25;98920.843750;;;18.740000;61.771484
77517;BME280;68414;53.946;27.634;2023-09-19T01:02:25;98915.265625;;;18.770000;63.017578
77517;BME280;68414;53.946;27.634;2023-09-19T01:03:24;98918.437500;;;18.760000;63.190430
77517;BME280;68414;53.946;27.634;2023-09-19T01:04:24;98922.835938;;;18.730000;62.667969
77517;BME280;68414;53.946;27.634;2023-09-19T01:05:24;98912.140625;;;18.610001;63.524414
77517;BME280;68414;53.946;27.634;2023-09-19T01:06:24;98914.156250;;;18.540001;63.624023
77517;BME280;68414;53.946;27.634;2023-09-19T01:07:24;98913.390625;;;18.500000;64.336914
77517;BME280;68414;53.946;27.634;2023-09-19T01:08:24;98914.960938;;;18.540001;63.559570
77517;BME280;68414;53.946;27.634;2023-09-19T01:09:24;98913.750000;;;18.590000;62.924805
77517;BME280;68414;53.946;27.634;2023-09-19T01:10:24;98910.953125;;;18.590000;63.500000
77517;BME280;68414;53.946;27.634;2023-09-19T01:20:27;98896.687500;;;18.360001;64.427734
77517;BME280;68414;53.946;27.634;2023-09-19T01:22:26;98898.750000;;;18.209999;64.096680
77517;BME280;68414;53.946;27.634;2023-09-19T01:30:26;98886.328125;;;18.330000;62.875977
77517;BME280;68414;53.946;27.634;2023-09-19T01:31:24;98886.718750;;;18.350000;61.982422
77517;BME280;68414;53.946;27.634;2023-09-19T01:32:24;98887.937500;;;18.340000;63.374023
77517;BME280;68414;53.946;27.634;2023-09-19T01:33:25;98881.578125;;;18.299999;64.108398
77517;BME280;68414;53.946;27.634;2023-09-19T01:34:26;98883.984375;;;18.280001;63.719727
77517;BME280;68414;53.946;27.634;2023-09-19T01:35:26;98872.015625;;;18.240000;64.056641
77517;BME280;68414;53.946;27.634;2023-09-19T01:36:29;98877.617188;;;18.200001;64.283203
77517;BME280;68414;53.946;27.634;2023-09-19T01:37:24;98866.437500;;;18.240000;62.973633
77517;BME280;68414;53.946;27.634;2023-09-19T01:38:24;98873.648438;;;18.209999;63.478516
77517;BME280;68414;53.946;27.634;2023-09-19T01:39:24;98869.617188;;;18.290001;62.362305
77517;BME280;68414;53.946;27.634;2023-09-19T01:40:24;98871.609375;;;18.290001;62.052734
77517;BME280;68414;53.946;27.634;2023-09-19T01:41:29;98861.218750;;;18.330000;62.311523
77517;BME280;68414;53.946;27.634;2023-09-19T01:44:28;98859.640625;;;18.280001;63.113281
77517;BME280;68414;53.946;27.634;2023-09-19T01:45:28;98868.812500;;;18.290001;61.941406
77517;BME280;68414;53.946;27.634;2023-09-19T01:46:25;98862.046875;;;18.299999;62.120117
77517;BME280;68414;53.946;27.634;2023-09-19T01:51:28;98865.710938;;;18.120001;63.510742
77517;BME280;68414;53.946;27.634;2023-09-19T01:52:25;98855.742188;;;18.110001;62.703125
77517;BME280;68414;53.946;27.634;2023-09-19T01:54:26;98854.968750;;;18.070000;63.426758
77517;BME280;68414;53.946;27.634;2023-09-19T01:55:24;98857.734375;;;18.110001;62.679688
77517;BME280;68414;53.946;27.634;2023-09-19T01:57:27;98859.328125;;;18.080000;63.139648
77517;BME280;68414;53.946;27.634;2023-09-19T01:59:25;98855.718750;;;18.180000;62.424805
77517;BME280;68414;53.946;27.634;2023-09-19T02:00:24;98849.750000;;;18.160000;61.648438
77517;BME280;68414;53.946;27.634;2023-09-19T02:01:24;98853.734375;;;18.150000;62.420898
77517;BME280;68414;53.946;27.634;2023-09-19T02:02:24;98848.609375;;;18.030001;63.474609
77517;BME280;68414;53.946;27.634;2023-09-19T02:03:24;98842.234375;;;18.030001;63.805664
77517;BME280;68414;53.946;27.634;2023-09-19T02:04:24;98841.867188;;;17.969999;63.058594
77517;BME280;68414;53.946;27.634;2023-09-19T02:05:25;98842.687500;;;17.910000;62.927734
77517;BME280;68414;53.946;27.634;2023-09-19T02:06:24;98845.859375;;;17.889999;63.057617
77517;BME280;68414;53.946;27.634;2023-09-19T02:07:24;98845.875000;;;17.860001;63.228516
77517;BME280;68414;53.946;27.634;2023-09-19T02:08:24;98834.718750;;;17.820000;62.870117
77517;BME280;68414;53.946;27.634;2023-09-19T02:09:25;98829.562500;;;17.840000;62.786133
77517;BME280;68414;53.946;27.634;2023-09-19T02:10:24;98841.875000;;;17.870001;62.589844
77517;BME280;68414;53.946;27.634;2023-09-19T02:11:24;98828.328125;;;17.920000;62.951172
77517;BME280;68414;53.946;27.634;2023-09-19T02:12:24;98838.664062;;;17.990000;62.872070
77517;BME280;68414;53.946;27.634;2023-09-19T02:13:25;98835.484375;;;17.969999;62.339844
77517;BME280;68414;53.946;27.634;2023-09-19T02:14:24;98835.921875;;;17.879999;62.703125
77517;BME280;68414;53.946;27.634;2023-09-19T02:15:24;98831.937500;;;17.860001;62.445312
77517;BME280;68414;53.946;27.634;2023-09-19T02:16:24;98832.351562;;;17.840000;63.073242
77517;BME280;68414;53.946;27.634;2023-09-19T02:17:24;98835.562500;;;17.760000;63.125977
77517;BME280;68414;53.946;27.634;2023-09-19T02:18:24;98831.148438;;;17.780001;63.648438
77517;BME280;68414;53.946;27.634;2023-09-19T02:19:24;98833.953125;;;17.820000;63.367188
77517;BME280;68414;53.946;27.634;2023-09-19T02:20:24;98827.570312;;;17.809999;63.674805
77517;BME280;68414;53.946;27.634;2023-09-19T02:21:24;98823.609375;;;17.719999;64.775391
77517;BME280;68414;53.946;27.634;2023-09-19T02:22:24;98827.195312;;;17.719999;63.022461
77517;BME280;68414;53.946;27.634;2023-09-19T02:23:24;98819.671875;;;17.620001;62.886719
77517;BME280;68414;53.946;27.634;2023-09-19T02:24:24;98837.171875;;;17.590000;63.542969
77517;BME280;68414;53.946;27.634;2023-09-19T02:25:24;98828.445312;;;17.540001;63.514648
77517;BME280;68414;53.946;27.634;2023-09-19T02:26:24;98829.250000;;;17.540001;63.029297
77517;BME280;68414;53.946;27.634;2023-09-19T02:27:24;98823.671875;;;17.540001;62.864258
77517;BME280;68414;53.946;27.634;2023-09-19T02:28:24;98821.242188;;;17.450001;63.855469
77517;BME280;68414;53.946;27.634;2023-09-19T02:29:24;98822.859375;;;17.430000;63.718750
77517;BME280;68414;53.946;27.634;2023-09-19T02:30:25;98820.078125;;;17.430000;64.027344
77517;BME280;68414;53.946;27.634;2023-09-19T02:31:24;98819.671875;;;17.370001;64.196289
77517;BME280;68414;53.946;27.634;2023-09-19T02:32:24;98822.062500;;;17.280001;65.041992
77517;BME280;68414;53.946;27.634;2023-09-19T02:33:24;98826.046875;;;17.240000;64.991211
77517;BME280;68414;53.946;27.634;2023-09-19T02:34:24;98815.726562;;;17.209999;64.690430
77517;BME280;68414;53.946;27.634;2023-09-19T02:35:24;98825.273438;;;17.160000;65.135742
77517;BME280;68414;53.946;27.634;2023-09-19T02:36:24;98824.484375;;;17.190001;64.544922
77517;BME280;68414;53.946;27.634;2023-09-19T02:37:24;98818.492188;;;17.170000;64.056641
77517;BME280;68414;53.946;27.634;2023-09-19T02:38:29;98824.859375;;;17.180000;64.266602
77517;BME280;68414;53.946;27.634;2023-09-19T02:39:24;98824.062500;;;17.170000;63.979492
77517;BME280;68414;53.946;27.634;2023-09-19T02:40:24;98821.687500;;;17.230000;63.800781
77517;BME280;68414;53.946;27.634;2023-09-19T02:41:24;98818.507812;;;17.209999;63.753906
77517;BME280;68414;53.946;27.634;2023-09-19T02:42:24;98821.687500;;;17.230000;63.668945
77517;BME280;68414;53.946;27.634;2023-09-19T02:43:24;98823.671875;;;17.219999;64.284180
77517;BME280;68414;53.946;27.634;2023-09-19T02:44:24;98822.468750;;;17.270000;64.357422
77517;BME280;68414;53.946;27.634;2023-09-19T02:45:25;98827.640625;;;17.280001;64.028320
77517;BME280;68414;53.946;27.634;2023-09-19T02:46:24;98821.687500;;;17.230000;64.473633
77517;BME280;68414;53.946;27.634;2023-09-19T02:47:24;98822.484375;;;17.230000;64.384766
77517;BME280;68414;53.946;27.634;2023-09-19T02:48:24;98818.921875;;;17.190001;64.732422
77517;BME280;68414;53.946;27.634;2023-09-19T02:49:24;98825.273438;;;17.160000;64.474609
77517;BME280;68414;53.946;27.634;2023-09-19T02:50:25;98822.484375;;;17.160000;63.967773
77517;BME280;68414;53.946;27.634;2023-09-19T02:51:24;98827.656250;;;17.070000;64.571289
77517;BME280;68414;53.946;27.634;2023-09-19T02:52:24;98818.890625;;;17.090000;64.497070
77517;BME280;68414;53.946;27.634;2023-09-19T02:53:24;98825.265625;;;17.090000;64.805664
77517;BME280;68414;53.946;27.634;2023-09-19T02:54:25;98827.671875;;;17.040001;64.642578
77517;BME280;68414;53.946;27.634;2023-09-19T02:55:24;98817.734375;;;17.059999;64.525391
77517;BME280;68414;53.946;27.634;2023-09-19T02:56:24;98819.703125;;;17.090000;64.706055
77517;BME280;68414;53.946;27.634;2023-09-19T02:57:24;98823.679688;;;17.120001;64.655273
77517;BME280;68414;53.946;27.634;2023-09-19T02:58:24;98824.078125;;;17.139999;64.668945
77517;BME280;68414;53.946;27.634;2023-09-19T02:59:24;98819.703125;;;17.160000;64.530273
77517;BME280;68414;53.946;27.634;2023-09-19T03:00:24;98824.859375;;;17.000000;65.331055
77517;BME280;68414;53.946;27.634;2023-09-19T03:01:24;98821.296875;;;16.930000;64.615234
77517;BME280;68414;53.946;27.634;2023-09-19T03:02:24;98821.296875;;;16.820000;65.514648
77517;BME280;68414;53.946;27.634;2023-09-19T03:03:24;98818.500000;;;16.750000;65.646484
77517;BME280;68414;53.946;27.634;2023-09-19T03:04:24;98816.125000;;;16.840000;65.737305
77517;BME280;68414;53.946;27.634;2023-09-19T03:05:24;98816.921875;;;16.879999;65.435547
77517;BME280;68414;53.946;27.634;2023-09-19T03:06:24;98816.109375;;;16.809999;65.643555
77517;BME280;68414;53.946;27.634;2023-09-19T03:07:24;98820.500000;;;16.820000;65.656250
77517;BME280;68414;53.946;27.634;2023-09-19T03:08:24;98819.304688;;;16.760000;66.175781
77517;BME280;68414;53.946;27.634;2023-09-19T03:09:24;98814.929688;;;16.820000;66.360352
77517;BME280;68414;53.946;27.634;2023-09-19T03:10:24;98822.468750;;;16.709999;65.583984
77517;BME280;68414;53.946;27.634;2023-09-19T03:11:24;98816.085938;;;16.590000;66.129883
77517;BME280;68414;53.946;27.634;2023-09-19T03:12:24;98816.484375;;;16.610001;65.824219
77517;BME280;68414;53.946;27.634;2023-09-19T03:13:24;98815.296875;;;16.549999;66.707031
77517;BME280;68414;53.946;27.634;2023-09-19T03:14:24;98810.523438;;;16.590000;65.987305
77517;BME280;68414;53.946;27.634;2023-09-19T03:15:24;98814.109375;;;16.629999;66.949219
77517;BME280;68414;53.946;27.634;2023-09-19T03:17:24;98819.687500;;;16.670000;65.601562
77517;BME280;68414;53.946;27.634;2023-09-19T03:18:24;98814.515625;;;16.580000;66.666016
77517;BME280;68414;53.946;27.634;2023-09-19T03:19:24;98811.726562;;;16.620001;66.396484
77517;BME280;68414;53.946;27.634;2023-09-19T03:20:24;98818.843750;;;16.520000;67.361328
77517;BME280;68414;53.946;27.634;2023-09-19T03:21:24;98817.226562;;;16.410000;67.157227
77517;BME280;68414;53.946;27.634;2023-09-19T03:22:24;98810.484375;;;16.450001;67.173828
77517;BME280;68414;53.946;27.634;2023-09-19T03:23:24;98808.882812;;;16.410000;66.837891
77517;BME280;68414;53.946;27.634;2023-09-19T03:24:24;98810.031250;;;16.290001;67.094727
77517;BME280;68414;53.946;27.634;2023-09-19T03:25:24;98817.226562;;;16.410000;66.673828
77517;BME280;68414;53.946;27.634;2023-09-19T03:26:24;98816.023438;;;16.379999;67.547852
77517;BME280;68414;53.946;27.634;2023-09-19T03:27:24;98814.031250;;;16.459999;67.164062
77517;BME280;68414;53.946;27.634;2023-09-19T03:28:24;98813.242188;;;16.379999;67.844727
77517;BME280;68414;53.946;27.634;2023-09-19T03:29:24;98808.078125;;;16.370001;68.107422
77517;BME280;68414;53.946;27.634;2023-09-19T03:30:24;98805.671875;;;16.350000;67.311523
77517;BME280;68414;53.946;27.634;2023-09-19T03:31:24;98805.304688;;;16.370001;66.667969
77517;BME280;68414;53.946;27.634;2023-09-19T03:32:25;98811.234375;;;16.350000;66.971680
77517;BME280;68414;53.946;27.634;2023-09-19T03:33:24;98816.015625;;;16.420000;66.609375
77517;BME280;68414;53.946;27.634;2023-09-19T03:34:24;98813.242188;;;16.379999;66.965820
77517;BME280;68414;53.946;27.634;2023-09-19T03:35:24;98810.054688;;;16.400000;66.857422
77517;BME280;68414;53.946;27.634;2023-09-19T03:36:24;98810.484375;;;16.450001;66.272461
77517;BME280;68414;53.946;27.634;2023-09-19T03:37:24;98807.679688;;;16.379999;66.712891
77517;BME280;68414;53.946;27.634;2023-09-19T03:38:25;98803.296875;;;16.299999;67.315430
77517;BME280;68414;53.946;27.634;2023-09-19T03:39:24;98805.281250;;;16.260000;67.134766
77517;BME280;68414;53.946;27.634;2023-09-19T03:40:24;98803.671875;;;16.250000;67.714844
77517;BME280;68414;53.946;27.634;2023-09-19T03:41:24;98804.046875;;;16.200001;67.609375
77517;BME280;68414;53.946;27.634;2023-09-19T03:42:24;98804.453125;;;16.190001;67.056641
77517;BME280;68414;53.946;27.634;2023-09-19T03:43:24;98804.843750;;;16.170000;67.603516
77517;BME280;68414;53.946;27.634;2023-09-19T03:44:24;98807.203125;;;16.120001;67.573242
77517;BME280;68414;53.946;27.634;2023-09-19T03:45:24;98798.054688;;;16.040001;68.056641
77517;BME280;68414;53.946;27.634;2023-09-19T03:46:24;98798.023438;;;16.010000;67.983398
77517;BME280;68414;53.946;27.634;2023-09-19T03:47:24;98811.914062;;;15.970000;68.176758
77517;BME280;68414;53.946;27.634;2023-09-19T03:48:24;98805.953125;;;15.990000;67.827148
77517;BME280;68414;53.946;27.634;2023-09-19T03:49:24;98805.187500;;;15.980000;67.849609
77517;BME280;68414;53.946;27.634;2023-09-19T03:50:24;98801.968750;;;15.920000;68.652344
77517;BME280;68414;53.946;27.634;2023-09-19T03:51:24;98804.343750;;;15.900000;69.066406
77517;BME280;68414;53.946;27.634;2023-09-19T03:52:24;98799.187500;;;15.960000;68.481445
77517;BME280;68414;53.946;27.634;2023-09-19T03:53:25;98798.015625;;;15.930000;68.170898
77517;BME280;68414;53.946;27.634;2023-09-19T03:54:24;98801.203125;;;15.990000;67.829102
77517;BME280;68414;53.946;27.634;2023-09-19T03:55:24;98797.218750;;;15.930000;68.817383
77517;BME280;68414;53.946;27.634;2023-09-19T03:56:24;98788.476562;;;15.940000;68.885742
77517;BME280;68414;53.946;27.634;2023-09-19T03:57:24;98797.609375;;;15.910000;68.596680
77517;BME280;68414;53.946;27.634;2023-09-19T03:58:24;98794.843750;;;15.990000;67.948242
77517;BME280;68414;53.946;27.634;2023-09-19T03:59:24;98788.914062;;;16.070000;67.456055
77517;BME280;68414;53.946;27.634;2023-09-19T04:00:24;98790.148438;;;16.129999;67.191406
77517;BME280;68414;53.946;27.634;2023-09-19T04:01:24;98784.984375;;;16.150000;67.227539
77517;BME280;68414;53.946;27.634;2023-09-19T04:02:24;98788.937500;;;16.110001;67.296875
77517;BME280;68414;53.946;27.634;2023-09-19T04:03:24;98778.968750;;;16.030001;67.920898
77517;BME280;68414;53.946;27.634;2023-09-19T04:04:24;98783.320312;;;15.930000;68.663086
77517;BME280;68414;53.946;27.634;2023-09-19T04:05:24;98784.125000;;;15.930000;68.643555
77517;BME280;68414;53.946;27.634;2023-09-19T04:06:24;98778.968750;;;15.960000;68.646484
77517;BME280;68414;53.946;27.634;2023-09-19T04:07:24;98783.328125;;;15.970000;67.890625
77517;BME280;68414;53.946;27.634;2023-09-19T04:08:24;98789.679688;;;15.930000;68.357422
77517;BME280;68414;53.946;27.634;2023-09-19T04:09:24;98780.109375;;;15.870000;67.888672
77517;BME280;68414;53.946;27.634;2023-09-19T04:10:24;98782.109375;;;15.900000;67.739258
77517;BME280;68414;53.946;27.634;2023-09-19T04:11:24;98778.164062;;;15.910000;67.630859
77517;BME280;68414;53.946;27.634;2023-09-19T04:12:24;98780.976562;;;16.020000;68.151367
77517;BME280;68414;53.946;27.634;2023-09-19T04:13:25;98782.179688;;;16.080000;67.930664
77517;BME280;68414;53.946;27.634;2023-09-19T04:14:24;98773.843750;;;16.120001;67.781250
77517;BME280;68414;53.946;27.634;2023-09-19T04:15:24;98769.890625;;;16.160000;67.272461
77517;BME280;68414;53.946;27.634;2023-09-19T04:16:24;98776.648438;;;16.190001;66.991211
77517;BME280;68414;53.946;27.634;2023-09-19T04:17:24;98768.679688;;;16.139999;67.105469
77517;BME280;68414;53.946;27.634;2023-09-19T04:18:24;98768.656250;;;16.000000;67.490234
77517;BME280;68414;53.946;27.634;2023-09-19T04:19:24;98767.046875;;;15.910000;67.499023
77517;BME280;68414;53.946;27.634;2023-09-19T04:20:24;98760.687500;;;15.910000;67.662109
77517;BME280;68414;53.946;27.634;2023-09-19T04:21:24;98765.476562;;;15.980000;66.980469
77517;BME280;68414;53.946;27.634;2023-09-19T04:22:25;98765.437500;;;15.870000;67.502930
77517;BME280;68414;53.946;27.634;2023-09-19T04:23:24;98763.835938;;;15.860000;67.556641
77517;BME280;68414;53.946;27.634;2023-09-19T04:24:24;98765.812500;;;15.820000;67.768555
77517;BME280;68414;53.946;27.634;2023-09-19T04:25:24;98762.625000;;;15.830000;67.716797
77517;BME280;68414;53.946;27.634;2023-09-19T04:26:24;98762.625000;;;15.830000;67.167969
77517;BME280;68414;53.946;27.634;2023-09-19T04:27:24;98761.125000;;;16.000000;67.006836
77517;BME280;68414;53.946;27.634;2023-09-19T04:28:24;98756.734375;;;16.030001;66.559570
77517;BME280;68414;53.946;27.634;2023-09-19T04:29:24;98757.507812;;;15.890000;67.208984
77517;BME280;68414;53.946;27.634;2023-09-19T04:30:24;98751.953125;;;15.890000;67.801758
77517;BME280;68414;53.946;27.634;2023-09-19T04:31:25;98764.640625;;;15.830000;68.670898
77517;BME280;68414;53.946;27.634;2023-09-19T04:32:27;98766.250000;;;15.910000;68.024414
77517;BME280;68414;53.946;27.634;2023-09-19T04:33:24;98763.468750;;;15.910000;67.892578
77517;BME280;68414;53.946;27.634;2023-09-19T04:34:24;98755.937500;;;15.910000;67.367188
77517;BME280;68414;53.946;27.634;2023-09-19T04:35:24;98758.710938;;;15.990000;67.234375
77517;BME280;68414;53.946;27.634;2023-09-19T04:36:25;98746.390625;;;15.960000;67.450195
77517;BME280;68414;53.946;27.634;2023-09-19T04:37:24;98756.734375;;;15.960000;66.989258
77517;BME280;68414;53.946;27.634;2023-09-19T04:38:24;98753.156250;;;15.910000;67.652344
77517;BME280;68414;53.946;27.634;2023-09-19T04:39:24;98750.804688;;;16.040001;67.222656
77517;BME280;68414;53.946;27.634;2023-09-19T04:40:24;98757.531250;;;16.030001;66.704102
77517;BME280;68414;53.946;27.634;2023-09-19T04:41:24;98746.421875;;;16.030001;66.472656
77517;BME280;68414;53.946;27.634;2023-09-19T04:42:24;98749.203125;;;16.000000;66.996094
77517;BME280;68414;53.946;27.634;2023-09-19T04:43:24;98748.000000;;;15.930000;66.832031
77517;BME280;68414;53.946;27.634;2023-09-19T04:44:24;98744.046875;;;16.020000;66.900391
77517;BME280;68414;53.946;27.634;2023-09-19T04:45:24;98752.351562;;;15.940000;67.799805
77517;BME280;68414;53.946;27.634;2023-09-19T04:46:24;98745.218750;;;15.970000;66.980469
77517;BME280;68414;53.946;27.634;2023-09-19T04:47:24;98748.398438;;;15.960000;66.834961
77517;BME280;68414;53.946;27.634;2023-09-19T04:48:24;98746.390625;;;15.920000;67.379883
77517;BME280;68414;53.946;27.634;2023-09-19T04:49:24;98751.953125;;;15.890000;68.010742
77517;BME280;68414;53.946;27.634;2023-09-19T04:50:24;98747.195312;;;15.930000;68.389648
77517;BME280;68414;53.946;27.634;2023-09-19T04:51:24;98745.992188;;;15.940000;68.116211
77517;BME280;68414;53.946;27.634;2023-09-19T04:52:24;98753.531250;;;15.900000;68.845703
77517;BME280;68414;53.946;27.634;2023-09-19T04:53:24;98754.359375;;;16.010000;67.327148
77517;BME280;68414;53.946;27.634;2023-09-19T04:54:24;98751.203125;;;16.059999;67.818359
77517;BME280;68414;53.946;27.634;2023-09-19T04:55:24;98747.250000;;;16.139999;67.434570
77517;BME280;68414;53.946;27.634;2023-09-19T04:56:24;98742.078125;;;16.160000;66.920898
77517;BME280;68414;53.946;27.634;2023-09-19T04:57:24;98744.062500;;;16.120001;66.958984
77517;BME280;68414;53.946;27.634;2023-09-19T04:58:24;98741.687500;;;16.139999;66.534180